Big Sandy Regional (SJS)

 

Airport Diagram
No Airport Diagram Available
Current Weather/Forecast (IFR Conditions)
METAR KSJS 280355Z AUTO 36005KT 2 1/2SM +RA OVC008 M01/M01 A3018 RMK AO2 T10131013
TAF KSJS 280319Z 2803/2824 34007KT 1SM -SHSN OVC006 FM280700 35010KT P6SM VCSH OVC015 FM281000 34009KT P6SM BKN025

Airport Information

All Charts
General
Chart Name View
TAKEOFF MINIMUMS
ALTERNATE MINIMUMS
TAKEOFF MINIMUMS
ALTERNATE MINIMUMS

Approaches
Chart Name Download
RNAV (GPS) RWY 03
RNAV (GPS) RWY 21
RNAV (GPS) RWY 03
RNAV (GPS) RWY 21


Airport Statistics
Departures Arrivals Local
All Collected Stats since June 2016: 3 2 0
2021 Stats: 0 0 0
January Stats: 0 0 0

Inbound Traffic (Arrivals) - 0

No inbound traffic.


Outbound Traffic (Departures) - 0

No outbound traffic.


Local Traffic (Pattern) - 0

No local traffic.